Have a Safe July 4th! 

Flight Track Log - Related Links

Times and Time Zones

All times are in EDT time to prevent confusion due to time zone crossing. See the EJA727 flight status page for this flight to view local times or setup timezone preferences in your user account.

Time Position Orientation Groundspeed Altitude Reporting Facility
EDT Latitude Longitude Course Direction KTS MPH feet Rate Location/Type
Wed 10:28:07 PM 18.8358 -69.8783 321° Northwest 427 491 17,400  Level Miami Center
Wed 10:29:05 PM 18.9178 -69.9422 324° Northwest 403 464 19,900 2,186 Climbing Miami Center
Wed 10:30:05 PM 19.0039 -70.0125 322° Northwest 398 458 21,700 1,815 Climbing Miami Center
Wed 10:31:00 PM 19.0663 -70.0869 327° Northwest  Level FlightAware Approximate
Wed 10:31:04 PM 19.0986 -70.0822 325° Northwest 403 464 23,500  Level Miami Center
Wed 10:32:00 PM 19.1565 -70.1488 328° Northwest  Level FlightAware Approximate
Wed 10:32:06 PM 19.1933 -70.1567 323° Northwest 415 478 25,300  Level Miami Center
Wed 10:33:00 PM 19.2422 -70.2171 321° Northwest  Level FlightAware Approximate
Wed 10:33:04 PM 19.2944 -70.2331 325° Northwest 438 504 26,400  Level Miami Center
Wed 10:34:04 PM 19.4000 -70.3203 322° Northwest 457 526 27,400 1,091 Climbing Miami Center
Wed 10:35:05 PM 19.5097 -70.4075 323° Northwest 480 552 28,600 1,350 Climbing Miami Center
Wed 10:36:04 PM 19.6172 -70.4903 324° Northwest 485 558 30,100 1,513 Climbing Miami Center
Wed 10:37:04 PM 19.7247 -70.5714 325° Northwest 485 558 31,600 1,500 Climbing Miami Center
Wed 10:38:04 PM 19.8300 -70.6547 323° Northwest 479 551 33,100 1,450 Climbing Miami Center
Wed 10:39:04 PM 19.9117 -70.7169 324° Northwest 473 544 34,500 1,574 Climbing Miami Center
Wed 10:40:06 PM 20.0147 -70.8006 323° Northwest 453 521 36,300 1,400 Climbing Miami Center
Wed 10:41:04 PM 20.1117 -70.8781 323° Northwest 434 499 37,300 864 Climbing Miami Center
Wed 10:42:04 PM 20.2042 -70.9536 323° Northwest 427 491 38,000 700 Climbing Miami Center
Wed 10:43:04 PM 20.2786 -71.0497 310° West 421 484 38,700 694 Climbing Miami Center
Wed 10:44:05 PM 20.3511 -71.1506 307° West 427 491 39,400 645 Climbing Miami Center
Wed 10:45:05 PM 20.4236 -71.2514 308° West 427 491 40,000 298 Climbing Miami Center
Wed 10:46:06 PM 20.4958 -71.3525 307° West 432 497 40,000  Level Miami Center
Wed 10:47:04 PM 20.5683 -71.4558 307° West 432 497 40,000  Level Miami Center
Wed 10:48:04 PM 20.6383 -71.5550 307° West 432 497 40,000  Level Miami Center
Wed 10:49:04 PM 20.7128 -71.6583 308° West 432 497 40,000  Level Miami Center
Wed 10:50:06 PM 20.7872 -71.7622 307° West 438 504 40,000  Level Miami Center
Wed 10:51:04 PM 20.8553 -71.8639 306° West 438 504 40,000  Level Miami Center
Wed 10:52:05 PM 20.9272 -71.9633 308° West 438 504 40,000  Level Miami Center
Wed 10:53:06 PM 21.0014 -72.0650 308° West 438 504 40,000  Level Miami Center
Wed 10:54:04 PM 21.0711 -72.1669 306° West 438 504 40,000  Level Miami Center
Wed 10:55:05 PM 21.1431 -72.2692 307° West 438 504 40,000  Level Miami Center
Wed 10:56:04 PM 21.2150 -72.3711 307° West 438 504 40,000  Level Miami Center
Wed 10:57:04 PM 21.2867 -72.4733 307° West 438 504 40,000  Level Miami Center
Wed 10:58:04 PM 21.3606 -72.5756 308° West 438 504 40,000  Level Miami Center
Wed 10:59:06 PM 21.4325 -72.6803 306° West 438 504 40,000  Level Miami Center
Wed 11:00:04 PM 21.5019 -72.7831 306° West 438 504 40,000  Level Miami Center
Wed 11:01:05 PM 21.5756 -72.8878 307° West 443 510 40,000  Level Miami Center
Wed 11:02:06 PM 21.6517 -72.9994 306° West 443 510 40,000  Level Miami Center
Wed 11:03:04 PM 21.7272 -73.1044 308° West 443 510 40,000  Level Miami Center
Wed 11:04:06 PM 21.7986 -73.2097 306° West 443 510 40,000  Level Miami Center
Wed 11:05:04 PM 21.8678 -73.3131 306° West 443 510 40,000  Level Miami Center
Wed 11:06:04 PM 21.9392 -73.4186 306° West 443 510 40,000  Level Miami Center
Wed 11:07:04 PM 22.0144 -73.5194 309° West 437 503 40,000  Level Miami Center
Wed 11:08:04 PM 22.0858 -73.6253 306° West 442 509 40,000  Level Miami Center
Wed 11:09:04 PM 22.1547 -73.7289 306° West 436 502 40,000  Level Miami Center
Wed 11:10:05 PM 22.2278 -73.8303 308° West 436 502 40,000  Level Miami Center
Wed 11:11:04 PM 22.2989 -73.9364 306° West 436 502 40,000  Level Miami Center
Wed 11:12:04 PM 22.3675 -74.0406 305° West 436 502 40,000  Level Miami Center
Wed 11:13:04 PM 22.4364 -74.1425 306° West 431 496 40,000  Level Miami Center
Wed 11:14:05 PM 22.5111 -74.2464 308° West 431 496 40,000  Level Miami Center
Wed 11:15:06 PM 22.5819 -74.3508 306° West 431 496 40,000  Level Miami Center
Wed 11:16:06 PM 22.6506 -74.4575 305° West 431 496 40,000  Level Miami Center
Wed 11:17:05 PM 22.7231 -74.5619 307° West 431 496 40,000  Level Miami Center
Wed 11:18:04 PM 22.7936 -74.6642 307° West 431 496 40,000  Level Miami Center
Wed 11:19:05 PM 22.8642 -74.7692 306° West 431 496 40,000  Level Miami Center
Wed 11:20:04 PM 22.9322 -74.8739 305° West 431 496 40,000  Level Miami Center
Wed 11:21:05 PM 23.0025 -74.9767 307° West 425 489 40,000  Level Miami Center
Wed 11:22:06 PM 23.0686 -75.0794 305° West 425 489 40,000  Level Miami Center
Wed 11:23:04 PM 23.1408 -75.1825 307° West 425 489 40,000  Level Miami Center
Wed 11:24:05 PM 23.2108 -75.2878 306° West 425 489 40,000  Level Miami Center
Wed 11:25:05 PM 23.2789 -75.3911 306° West 425 489 40,000  Level Miami Center
Wed 11:26:05 PM 23.3467 -75.4967 305° West 425 489 40,000  Level Miami Center
Wed 11:27:07 PM 23.4164 -75.5956 308° West 420 483 40,000  Level Miami Center
Wed 11:28:05 PM 23.4864 -75.7036 305° West 420 483 40,000  Level Miami Center
Wed 11:29:05 PM 23.5519 -75.8072 305° West 420 483 40,000  Level Miami Center
Wed 11:30:05 PM 23.6194 -75.9042 307° West 432 497 40,000  Level Miami Center
Wed 11:31:05 PM 23.6847 -76.0058 305° West 427 491 40,000  Level Miami Center
Wed 11:32:04 PM 23.7481 -76.1053 305° West 416 479 40,000  Level Miami Center
Wed 11:33:04 PM 23.8133 -76.2069 305° West 416 479 40,000  Level Miami Center
Wed 11:34:04 PM 23.8806 -76.3089 306° West 416 479 40,000  Level Miami Center
Wed 11:35:05 PM 23.9436 -76.4064 305° West 416 479 40,000  Level Miami Center
Wed 11:36:06 PM 24.0108 -76.5086 306° West 411 473 40,000  Level Miami Center
Wed 11:37:06 PM 24.0736 -76.6086 305° West 411 473 40,000  Level Miami Center
Wed 11:38:05 PM 24.1386 -76.7086 305° West 411 473 40,000  Level Miami Center
Wed 11:39:04 PM 24.2097 -76.8156 306° West 401 461 40,000  Level Miami Center
Wed 11:40:05 PM 24.2725 -76.9136 305° West 401 461 40,000  Level Miami Center
Wed 11:41:04 PM 24.3372 -77.0139 305° West 401 461 40,000  Level Miami Center
Wed 11:42:05 PM 24.4019 -77.1122 306° West 401 461 40,000  Level Miami Center
Wed 11:43:05 PM 24.4644 -77.2150 304° West 406 467 40,000  Level Miami Center
Wed 11:44:05 PM 24.5289 -77.3158 305° West 401 461 40,000  Level Miami Center
Wed 11:45:05 PM 24.5933 -77.4164 305° West 401 461 40,000  Level Miami Center
Wed 11:46:04 PM 24.6536 -77.5172 303° West 401 461 40,000  Level Miami Center
Wed 11:47:04 PM 24.7178 -77.6206 304° West 401 461 40,000  Level Miami Center
Wed 11:48:04 PM 24.7819 -77.7194 306° West 406 467 40,000  Level Miami Center
Wed 11:49:05 PM 24.8483 -77.8231 305° West 406 467 40,000  Level Miami Center
Wed 11:50:05 PM 24.9125 -77.9267 304° West 406 467 40,000  Level Miami Center
Wed 11:51:05 PM 24.9786 -78.0281 306° West 406 467 40,000  Level Miami Center
Wed 11:52:04 PM 25.0425 -78.1272 305° West 406 467 40,000  Level Miami Center
Wed 11:53:04 PM 25.1064 -78.2336 304° West 406 467 40,000  Level Miami Center
Wed 11:54:04 PM 25.1722 -78.3353 306° West 406 467 40,000  Level Miami Center
Wed 11:55:05 PM 25.2381 -78.4417 304° West 406 467 40,000  Level Miami Center
Wed 11:56:06 PM 25.3036 -78.5436 305° West 412 474 40,000  Level Miami Center
Wed 11:57:04 PM 25.3672 -78.6481 304° West 412 474 40,000  Level Miami Center
Wed 11:58:05 PM 25.4350 -78.7503 306° West 412 474 40,000  Level Miami Center
Wed 11:59:05 PM 25.4961 -78.8572 302° West 412 474 40,000  Level Miami Center
Thu 12:00:04 AM 25.5514 -78.9411 306° West 417 480 40,000  Level Miami Center
Thu 12:01:04 AM 25.6231 -79.0553 305° West 417 480 40,000  Level Miami Center
Thu 12:02:04 AM 25.6883 -79.1600 305° West 417 480 40,000  Level Miami Center
Thu 12:03:04 AM 25.7514 -79.2675 303° West 416 479 40,000  Level Miami Center
Thu 12:04:05 AM 25.8225 -79.3867 304° West 416 479 40,000  Level Miami Center
Thu 12:05:05 AM 25.8814 -79.4825 304° West 425 489 40,000  Level Miami Center
Thu 12:06:04 AM 25.9503 -79.5903 305° West 425 489 40,000  Level Miami Center
Thu 12:07:04 AM 26.0172 -79.6981 305° West 425 489 40,000  Level Miami Center
Thu 12:08:04 AM 26.0819 -79.8061 304° West 425 489 40,000  Level Miami Center
Thu 12:09:07 AM 26.1486 -79.9142 305° West 425 489 40,000  Level Miami Center
Thu 12:10:05 AM 26.2153 -80.0247 304° West 425 489 40,000  Level Miami Center
Thu 12:11:06 AM 26.2817 -80.1378 303° West 425 489 40,000  Level Miami Center
Thu 12:12:05 AM 26.3481 -80.2508 303° West 425 489 40,000  Level Miami Center
Thu 12:13:05 AM 26.4183 -80.3711 303° West 425 489 40,000  Level Miami Center
Thu 12:14:06 AM 26.4764 -80.4703 303° West 425 489 40,000  Level Miami Center
Thu 12:15:06 AM 26.5486 -80.5933 303° West 431 496 40,000  Level Miami Center
Thu 12:16:04 AM 26.6106 -80.6950 304° West 436 502 40,000  Level Miami Center
Thu 12:17:04 AM 26.6825 -80.8161 304° West 428 493 40,000  Level Miami Center
Thu 12:18:04 AM 26.7425 -80.9181 303° West 428 493 40,000 -1,450 Level Miami Center
Thu 12:19:04 AM 26.8181 -81.0464 303° West 447 514 37,100 -2,200 Descending Miami Center
Thu 12:20:04 AM 26.8797 -81.1533 303° West 432 497 35,600 -1,100 Descending Miami Center
Thu 12:21:04 AM 26.9472 -81.2653 304° West 432 497 34,900 -843 Descending Miami Center
Thu 12:22:05 AM 27.0128 -81.3772 303° West 432 497 33,900 -2,182 Descending Miami Center
Thu 12:23:05 AM 27.0722 -81.4775 304° West 432 497 30,500 -3,322 Descending Miami Center
Thu 12:24:06 AM 27.1375 -81.5897 303° West 432 497 27,200 -3,600 Descending Miami Center
Thu 12:25:05 AM 27.2083 -81.7164 302° West 432 497 23,300 -3,610 Descending Miami Center
Thu 12:26:04 AM 27.2756 -81.8289 304° West 432 497 20,100 -3,025 Descending Miami Center
Thu 12:27:04 AM 27.3347 -81.9319 303° West 445 512 17,300 -3,074 Descending Miami Center
Thu 12:28:05 AM 27.3994 -82.0447 303° West 440 506 13,900 -3,049 Descending Miami Center
Thu 12:29:06 AM 27.4669 -82.1436 308° West 426 490 11,100 -1,462 Descending Miami Center
Thu 12:30:04 AM 27.5692 -82.1953 336° Northwest 381 438 11,000 -50 Descending Miami Center
Thu 12:31:05 AM 27.6675 -82.2467 335° Northwest 376 433 11,000 -500 Level Miami Center
Thu 12:32:04 AM 27.7475 -82.2881 335° Northwest 364 419 10,000 -1,361 Descending Miami Center
Thu 12:33:04 AM 27.8269 -82.3317 334° Northwest 341 392 8,300 -2,016 Descending Miami Center
Thu 12:34:06 AM 27.9028 -82.3706 336° Northwest 314 361 5,900 -1,650 Descending Miami Center
Thu 12:35:04 AM 27.9764 -82.4094 335° Northwest 301 346 5,000 -1,014 Descending Miami Center
Thu 12:36:28 AM 28.0833 -82.4167 357° North 221 254 3,500 -1,087 Descending Tampa TRACON
Thu 12:37:22 AM 28.1167 -82.4333 336° Northwest 185 213 2,500 -750 Descending Tampa TRACON
Thu 12:38:28 AM 28.1000 -82.4833 249° West 153 176 2,000 -429 Descending Tampa TRACON
Thu 12:39:28 AM 28.0833 -82.5167 240° Southwest 149 171 1,600 -400 Descending Tampa TRACON
Thu 12:40:28 AM 28.0500 -82.5333 204° Southwest 131 151 1,200 -550 Descending Tampa TRACON
Thu 12:41:28 AM 28.0167 -82.5333 180° South 134 154 500 -700 Descending Tampa TRACON
Thu 12:43:00 AM 27.9755 -82.5332 190° South  Level Estimated
Thu 12:50:00 AM 27.9755 -82.5332 190° South  Level Estimated
Thu 12:51:00 AM 27.9755 -82.5332 190° South  Level Estimated

Login

Don't have an account? Register now (free) for customized features, flight alerts, and more!